Time;durP1;ratioP1;P1;durP2;ratioP2;P2;SDS_P1;SDS_P2;PMS_P1;PMS_P2;Temp;Humidity;BMP_temperature;BMP_pressure;BME280_temperature;BME280_humidity;BME280_pressure;Samples;Min_cycle;Max_cycle;Signal;HPM_P1;HPM_P2
2021/11/21 00:02:16;;;;;;;9.20;8.30;;;;;;;9.17;79.23;99972.23;213831;1327;139213;-61
2021/11/21 00:07:17;;;;;;;10.00;9.00;;;;;;;9.19;79.08;99965.00;213783;1323;137972;-73
2021/11/21 00:12:23;;;;;;;9.40;8.50;;;;;;;9.17;78.77;99964.27;214833;1323;137898;-74
2021/11/21 00:17:30;;;;;;;11.20;10.10;;;;;;;9.18;78.61;99958.57;214268;1322;138981;-75
2021/11/21 00:22:35;;;;;;;9.80;8.80;;;;;;;9.14;78.88;99948.74;214149;1326;139904;-75
2021/11/21 00:27:41;;;;;;;10.70;9.60;;;;;;;9.16;78.62;99947.34;213220;1320;136873;-73
2021/11/21 00:32:44;;;;;;;9.70;8.70;;;;;;;9.12;78.91;99942.33;214739;1322;138848;-73
2021/11/21 00:37:46;;;;;;;10.40;9.50;;;;;;;9.15;78.35;99937.98;214181;1322;138568;-73
2021/11/21 00:42:51;;;;;;;11.20;9.80;;;;;;;9.13;78.43;99932.77;214535;1321;138396;-74
2021/11/21 00:47:52;;;;;;;11.10;10.00;;;;;;;9.12;78.57;99939.10;214171;1322;142036;-74
2021/11/21 00:53:03;;;;;;;10.10;9.10;;;;;;;9.11;78.40;99937.69;215002;1322;138994;-76
2021/11/21 00:58:15;;;;;;;11.60;10.40;;;;;;;9.09;78.81;99929.60;215116;1321;139185;-74
2021/11/21 01:03:22;;;;;;;10.20;9.00;;;;;;;9.07;78.92;99929.81;214169;1321;139316;-75
2021/11/21 01:08:25;;;;;;;10.50;9.40;;;;;;;9.02;79.22;99924.09;214151;1323;140288;-72
2021/11/21 01:13:28;;;;;;;13.60;11.10;;;;;;;9.00;79.23;99922.52;215447;1322;138253;-76
2021/11/21 01:18:30;;;;;;;10.40;8.70;;;;;;;8.99;79.42;99914.98;214860;1321;138778;-74
2021/11/21 01:23:32;;;;;;;10.90;9.40;;;;;;;9.00;79.31;99912.40;215086;1321;139409;-75
2021/11/21 01:28:36;;;;;;;10.70;9.60;;;;;;;8.97;79.62;99905.00;215394;1322;139046;-74
2021/11/21 01:33:39;;;;;;;10.30;9.20;;;;;;;8.93;79.27;99903.93;214867;1322;138693;-74
2021/11/21 01:38:43;;;;;;;10.30;9.10;;;;;;;8.94;79.52;99898.53;214700;1324;139384;-73
2021/11/21 01:43:44;;;;;;;9.60;8.70;;;;;;;8.93;79.29;99889.20;215054;1322;139053;-75
2021/11/21 01:48:51;;;;;;;11.10;9.80;;;;;;;8.89;79.48;99872.02;215841;1309;138866;-73
2021/11/21 01:53:52;;;;;;;10.40;9.30;;;;;;;8.90;79.27;99863.21;214781;1307;138873;-74
2021/11/21 01:58:55;;;;;;;10.70;9.70;;;;;;;8.88;79.45;99861.10;215092;1323;139108;-74
2021/11/21 02:03:57;;;;;;;10.10;9.10;;;;;;;8.91;79.16;99853.88;213290;1322;139268;-73
2021/11/21 02:08:58;;;;;;;11.00;9.00;;;;;;;8.90;79.07;99851.20;215180;1316;138537;-74
2021/11/21 02:14:01;;;;;;;10.00;8.40;;;;;;;8.87;79.21;99844.53;215715;1322;139484;-71
2021/11/21 02:19:03;;;;;;;9.80;8.90;;;;;;;8.87;78.82;99836.61;214469;1309;139344;-72
2021/11/21 02:24:05;;;;;;;9.70;8.30;;;;;;;8.83;78.90;99837.35;215551;1321;138067;-73
2021/11/21 02:29:07;;;;;;;11.80;10.70;;;;;;;8.82;78.91;99829.67;215660;1322;138652;-74
2021/11/21 02:34:08;;;;;;;12.00;10.10;;;;;;;8.78;78.91;99822.02;215785;1321;138817;-74
2021/11/21 02:39:15;;;;;;;11.30;10.20;;;;;;;8.77;78.82;99823.75;215705;1321;139781;-75
2021/11/21 02:44:26;;;;;;;12.10;10.80;;;;;;;8.75;78.82;99818.50;212734;1333;139455;-72
2021/11/21 02:49:27;;;;;;;;;;;;;;;8.73;78.83;99816.04;212719;1327;139001;-73
2021/11/21 02:54:29;;;;;;;12.30;9.80;;;;;;;8.85;78.44;99813.62;215706;1322;126325;-73
2021/11/21 02:59:33;;;;;;;9.30;8.10;;;;;;;8.88;78.22;99817.16;212822;1329;138889;-74
2021/11/21 03:04:35;;;;;;;10.70;9.60;;;;;;;8.85;77.98;99801.80;214442;1323;138554;-73
2021/11/21 03:09:39;;;;;;;13.90;11.40;;;;;;;8.82;78.14;99803.02;215704;1323;138102;-74
2021/11/21 03:19:54;;;;;;;10.70;9.50;;;;;;;8.73;78.24;99781.23;215473;1322;139845;-72
2021/11/21 03:24:55;;;;;;;12.50;10.30;;;;;;;8.61;78.94;99778.27;215523;1316;138783;-73
2021/11/21 03:29:57;;;;;;;12.00;10.70;;;;;;;8.43;80.05;99774.14;213923;1313;138999;-75
2021/11/21 03:34:59;;;;;;;13.00;11.70;;;;;;;8.55;79.33;99760.98;213245;1323;139216;-73
2021/11/21 03:40:05;;;;;;;12.80;11.20;;;;;;;8.56;78.90;99760.52;212871;1327;138512;-74
2021/11/21 03:45:11;;;;;;;12.50;11.10;;;;;;;8.60;78.33;99756.21;215521;1310;138818;-73
2021/11/21 03:50:18;;;;;;;15.50;13.20;;;;;;;8.62;77.95;99757.46;213082;1321;138965;-74
2021/11/21 03:55:20;;;;;;;11.60;10.40;;;;;;;8.64;77.16;99749.23;215602;1322;138571;-73
2021/11/21 04:00:26;;;;;;;13.60;11.30;;;;;;;8.62;77.01;99752.00;213174;1327;139120;-76
2021/11/21 04:05:31;;;;;;;13.30;11.90;;;;;;;8.60;76.69;99752.89;215239;1322;138720;-74
2021/11/21 04:10:34;;;;;;;11.50;10.30;;;;;;;8.52;76.80;99747.51;215272;1323;139083;-76
2021/11/21 04:15:38;;;;;;;12.40;11.00;;;;;;;8.48;77.24;99744.14;215694;1326;139097;-73
2021/11/21 04:20:47;;;;;;;14.00;11.60;;;;;;;8.47;76.84;99742.96;215306;1321;138595;-73
2021/11/21 04:25:49;;;;;;;13.10;11.10;;;;;;;8.42;77.42;99745.10;215427;1324;139983;-73
2021/11/21 04:30:53;;;;;;;14.90;11.60;;;;;;;8.42;77.15;99736.83;214773;1322;139140;-74
2021/11/21 04:35:54;;;;;;;11.90;9.60;;;;;;;8.41;76.99;99736.10;215612;1323;139357;-74
2021/11/21 04:40:56;;;;;;;14.20;10.00;;;;;;;8.36;76.66;99743.02;215463;1321;138796;-74
2021/11/21 04:45:58;;;;;;;13.90;12.40;;;;;;;8.36;77.36;99730.96;214718;1321;139117;-71
2021/11/21 04:51:02;;;;;;;12.30;9.50;;;;;;;8.34;77.48;99731.83;215642;1322;138259;-75
2021/11/21 04:56:08;;;;;;;14.00;11.20;;;;;;;8.26;77.95;99727.15;213721;1322;138659;-72
2021/11/21 05:01:16;;;;;;;13.90;10.90;;;;;;;8.27;77.79;99730.61;214296;1309;138953;-73
2021/11/21 05:06:25;;;;;;;11.40;10.20;;;;;;;8.25;77.51;99725.48;214303;1309;138763;-72
2021/11/21 05:11:33;;;;;;;11.20;10.00;;;;;;;8.27;77.58;99732.50;214192;1321;138993;-72
2021/11/21 05:16:35;;;;;;;11.50;10.20;;;;;;;8.24;77.71;99721.23;215619;1322;138882;-72
2021/11/21 05:21:44;;;;;;;13.80;11.50;;;;;;;8.20;78.17;99719.41;213090;1326;139067;-72
2021/11/21 05:26:46;;;;;;;13.80;12.00;;;;;;;8.20;78.04;99712.35;213907;1321;139277;-72
2021/11/21 05:31:51;;;;;;;13.90;11.40;;;;;;;8.15;78.54;99701.95;214396;1321;138411;-73
2021/11/21 05:42:54;;;;;;;15.20;12.90;;;;;;;8.07;79.65;99698.20;215623;1310;139613;-73
2021/11/21 05:47:57;;;;;;;12.60;10.80;;;;;;;8.15;78.97;99697.11;215446;1312;139083;-73
2021/11/21 05:52:59;;;;;;;15.90;13.70;;;;;;;8.10;79.30;99693.67;215016;1313;138669;-72
2021/11/21 05:58:00;;;;;;;15.10;12.70;;;;;;;8.14;79.11;99692.13;215289;1323;138548;-73
2021/11/21 06:03:02;;;;;;;13.90;12.20;;;;;;;8.10;79.09;99687.71;215673;1321;139035;-73
2021/11/21 06:08:06;;;;;;;15.70;13.00;;;;;;;8.10;79.02;99686.65;215510;1321;139424;-74
2021/11/21 06:13:13;;;;;;;13.40;12.00;;;;;;;8.05;79.02;99685.23;213470;1324;138660;-75
2021/11/21 06:18:16;;;;;;;16.00;12.70;;;;;;;8.11;78.86;99681.36;215149;1322;140647;-74
2021/11/21 06:29:58;;;;;;;15.20;12.70;;;;;;;8.07;78.84;99682.74;204944;1355;639424;-75
2021/11/21 06:35:01;;;;;;;15.20;12.00;;;;;;;7.96;79.52;99679.84;209589;1326;137580;-74
2021/11/21 06:40:05;;;;;;;14.70;12.00;;;;;;;7.91;79.86;99680.33;208784;1332;199470;-76
2021/11/21 06:45:13;;;;;;;15.00;11.70;;;;;;;7.89;79.80;99683.05;209318;1320;137941;-75
2021/11/21 06:50:19;;;;;;;13.20;10.90;;;;;;;7.83;80.09;99681.81;209124;1333;138346;-73
2021/11/21 06:55:23;;;;;;;14.00;11.70;;;;;;;7.80;80.52;99683.70;208945;1330;139497;-74
2021/11/21 07:00:30;;;;;;;15.70;12.50;;;;;;;7.80;80.64;99679.30;208064;1329;138303;-73
2021/11/21 07:05:33;;;;;;;15.60;13.20;;;;;;;7.83;80.63;99675.86;208181;1335;138224;-70
2021/11/21 07:10:38;;;;;;;19.50;14.40;;;;;;;7.87;80.18;99676.75;209127;1333;138531;-73
2021/11/21 07:15:39;;;;;;;16.80;13.30;;;;;;;7.99;79.87;99670.92;210442;1334;137775;-72
2021/11/21 07:20:41;;;;;;;15.60;12.80;;;;;;;7.99;79.78;99666.69;210442;1329;138517;-72
2021/11/21 07:25:43;;;;;;;15.60;13.70;;;;;;;8.03;79.71;99672.98;210860;1330;137317;-73
2021/11/21 07:30:45;;;;;;;14.40;12.30;;;;;;;8.07;79.52;99669.01;208221;1333;138299;-73
2021/11/21 07:35:55;;;;;;;16.50;13.90;;;;;;;8.04;79.25;99671.28;208587;1330;139194;-74
2021/11/21 07:40:58;;;;;;;16.50;13.30;;;;;;;8.03;79.11;99671.70;208792;1335;138619;-73
2021/11/21 07:46:00;;;;;;;15.70;13.20;;;;;;;7.99;79.36;99664.96;208672;1335;138118;-73
2021/11/21 07:51:06;;;;;;;15.40;12.70;;;;;;;8.07;78.56;99660.98;209135;1332;138616;-76
2021/11/21 07:56:12;;;;;;;13.20;11.40;;;;;;;8.01;78.55;99654.27;208982;1332;138413;-74
2021/11/21 08:01:20;;;;;;;15.90;13.10;;;;;;;8.00;78.50;99650.83;209413;1329;137673;-74
2021/11/21 08:06:21;;;;;;;13.30;10.30;;;;;;;7.96;78.52;99645.94;209122;1326;139126;-75
2021/11/21 08:11:23;;;;;;;15.90;12.50;;;;;;;7.96;78.61;99648.13;211081;1320;138821;-75
2021/11/21 08:16:25;;;;;;;15.20;13.10;;;;;;;7.98;78.49;99657.35;209897;1323;140868;-73
2021/11/21 08:37:07;;;;;;;13.40;10.80;;;;;;;7.98;78.25;99653.80;205736;1351;634915;-71
2021/11/21 08:42:09;;;;;;;17.00;13.70;;;;;;;8.01;77.47;99649.84;207327;1332;138061;-72
2021/11/21 08:47:11;;;;;;;13.70;11.20;;;;;;;8.06;77.64;99644.05;206625;1331;138330;-74
2021/11/21 08:52:13;;;;;;;15.60;11.00;;;;;;;8.11;77.25;99641.29;207263;1330;141493;-73
2021/11/21 08:57:15;;;;;;;13.80;12.10;;;;;;;8.17;77.20;99636.68;208113;1329;138290;-71
2021/11/21 09:02:17;;;;;;;12.60;10.70;;;;;;;8.20;76.51;99639.20;207496;1329;139106;-72
2021/11/21 09:07:18;;;;;;;12.70;10.50;;;;;;;8.25;76.19;99641.80;207001;1331;138354;-74
2021/11/21 09:12:20;;;;;;;12.30;10.70;;;;;;;8.24;75.85;99634.52;208109;1328;138241;-73
2021/11/21 09:17:22;;;;;;;13.40;11.90;;;;;;;8.29;75.90;99636.71;207418;1331;138586;-74
2021/11/21 09:22:24;;;;;;;15.70;11.70;;;;;;;8.34;76.09;99638.79;207399;1329;137867;-73
2021/11/21 09:27:28;;;;;;;12.80;10.40;;;;;;;8.32;75.54;99634.30;208535;1329;137930;-72
2021/11/21 09:32:40;;;;;;;13.30;11.30;;;;;;;8.40;75.36;99631.92;208422;1329;139366;-70
2021/11/21 09:37:41;;;;;;;13.70;11.10;;;;;;;8.39;75.68;99630.02;209002;1329;138016;-71
2021/11/21 09:42:46;;;;;;;12.10;10.10;;;;;;;8.38;75.41;99633.73;208011;1328;137926;-73
2021/11/21 09:47:51;;;;;;;12.40;11.10;;;;;;;8.37;75.53;99633.45;211354;1315;139107;-74
2021/11/21 09:52:53;;;;;;;12.30;10.90;;;;;;;8.36;75.42;99631.27;210557;1316;138640;-73
2021/11/21 09:57:55;;;;;;;11.80;10.20;;;;;;;8.30;75.63;99621.29;211034;1310;138260;-74
2021/11/21 10:03:09;;;;;;;12.30;11.10;;;;;;;8.29;75.66;99615.10;210318;1318;138158;-71
2021/11/21 10:08:24;;;;;;;9.20;8.00;;;;;;;8.30;76.09;99602.50;210019;1322;138893;-73
2021/11/21 10:13:38;;;;;;;11.80;10.40;;;;;;;8.26;75.53;99607.17;210906;1319;137502;-72
2021/11/21 10:18:51;;;;;;;12.40;11.00;;;;;;;8.25;75.74;99601.26;209750;1319;138982;-72
2021/11/21 10:24:20;;;;;;;14.10;11.70;;;;;;;8.25;75.32;99599.90;209982;1318;139193;-73
2021/11/21 10:29:32;;;;;;;14.90;11.60;;;;;;;8.21;75.49;99595.71;209842;1319;137715;-74
2021/11/21 10:34:35;;;;;;;15.20;11.70;;;;;;;8.33;75.33;99597.32;210091;1319;138740;-74
2021/11/21 10:39:45;;;;;;;14.00;11.00;;;;;;;8.37;75.10;99601.98;209137;1315;138061;-73
2021/11/21 10:44:51;;;;;;;13.30;11.20;;;;;;;8.34;75.29;99601.37;209872;1317;138338;-74
2021/11/21 10:49:53;;;;;;;15.10;11.40;;;;;;;8.36;74.95;99598.38;209819;1319;139096;-71
2021/11/21 10:55:01;;;;;;;13.70;12.20;;;;;;;8.31;75.17;99599.48;209584;1319;138256;-75
2021/11/21 11:00:20;;;;;;;15.10;10.90;;;;;;;8.28;75.18;99597.98;209981;1319;138400;-72
2021/11/21 11:05:24;;;;;;;13.90;11.90;;;;;;;8.23;75.10;99602.70;209256;1317;138181;-74
2021/11/21 11:10:35;;;;;;;13.60;11.70;;;;;;;8.27;75.09;99594.19;209860;1319;138030;-74
2021/11/21 11:15:40;;;;;;;15.50;11.70;;;;;;;8.23;75.33;99595.69;209988;1319;138581;-73
2021/11/21 11:20:48;;;;;;;13.90;12.10;;;;;;;8.17;75.22;99599.50;209393;1318;138946;-73
2021/11/21 11:25:53;;;;;;;17.40;14.70;;;;;;;8.22;75.46;99597.92;209209;1319;138406;-73
2021/11/21 11:31:01;;;;;;;16.70;13.20;;;;;;;8.25;75.35;99593.54;208701;1319;138953;-73
2021/11/21 11:36:18;;;;;;;13.90;11.30;;;;;;;8.25;75.36;99591.77;208903;1319;138804;-70
2021/11/21 11:41:32;;;;;;;14.40;11.90;;;;;;;8.22;75.57;99590.26;208673;1319;139118;-72
2021/11/21 11:46:40;;;;;;;16.50;13.00;;;;;;;8.21;75.78;99585.87;209487;1319;138603;-73
2021/11/21 11:51:42;;;;;;;;;;;;;;;8.19;75.82;99587.50;209725;1319;138699;-73
2021/11/21 11:57:00;;;;;;;16.80;12.30;;;;;;;8.18;75.77;99587.40;210151;1319;124809;-74
2021/11/21 12:02:04;;;;;;;16.50;14.60;;;;;;;8.15;75.88;99591.97;210943;1322;138314;-71
2021/11/21 12:07:33;;;;;;;16.90;14.40;;;;;;;8.19;75.98;99595.82;210045;1320;138718;-72
2021/11/21 12:13:07;;;;;;;18.00;13.60;;;;;;;8.18;75.85;99600.24;209697;1319;139022;-72
2021/11/21 12:18:10;;;;;;;17.10;14.20;;;;;;;8.18;76.19;99600.83;209623;1319;139697;-72
2021/11/21 12:23:14;;;;;;;19.90;15.50;;;;;;;8.15;75.86;99604.49;209783;1318;138637;-74
2021/11/21 12:28:16;;;;;;;17.60;14.30;;;;;;;8.17;76.11;99603.73;209418;1319;138403;-74
2021/11/21 12:33:23;;;;;;;17.40;14.70;;;;;;;8.16;76.42;99599.05;210209;1319;138778;-73
2021/11/21 12:38:35;;;;;;;18.30;15.70;;;;;;;8.17;76.32;99605.10;210015;1318;138566;-79
2021/11/21 12:48:51;;;;;;;23.20;19.10;;;;;;;8.26;76.03;99607.84;210026;1310;138744;-73
2021/11/21 12:53:56;;;;;;;23.20;17.70;;;;;;;8.20;76.43;99608.54;209918;1325;137876;-75
2021/11/21 12:59:02;;;;;;;21.60;18.60;;;;;;;8.22;76.41;99606.64;209589;1322;138588;-74
2021/11/21 13:04:04;;;;;;;22.70;17.90;;;;;;;8.15;76.56;99604.62;210378;1320;138833;-74
2021/11/21 13:09:06;;;;;;;21.60;16.70;;;;;;;8.06;76.92;99605.60;210079;1321;139003;-73
2021/11/21 13:14:10;;;;;;;23.60;18.70;;;;;;;8.07;77.02;99604.88;210891;1321;138170;-75
2021/11/21 13:19:13;;;;;;;22.20;17.70;;;;;;;8.07;76.95;99607.26;211281;1310;138303;-76
2021/11/21 13:24:14;;;;;;;23.20;18.00;;;;;;;8.02;77.23;99616.11;209968;1319;138690;-75
2021/11/21 13:38:27;;;;;;;22.50;17.90;;;;;;;7.97;78.06;99620.25;204937;1354;637434;-72
2021/11/21 13:43:43;;;;;;;22.00;16.80;;;;;;;7.94;78.17;99624.25;209852;1321;137925;-74
2021/11/21 13:48:48;;;;;;;27.10;17.30;;;;;;;7.87;78.47;99622.33;208146;1333;137841;-73
2021/11/21 13:53:50;;;;;;;22.30;17.10;;;;;;;7.92;78.47;99621.30;208170;1331;138732;-75
2021/11/21 14:02:39;;;;;;;23.70;18.60;;;;;;;7.84;78.51;99621.19;205839;1348;636141;-74
2021/11/21 14:08:00;;;;;;;23.00;18.00;;;;;;;7.84;78.58;99621.52;207793;1332;138181;-73
2021/11/21 14:13:20;;;;;;;24.80;19.50;;;;;;;7.84;78.98;99620.21;207611;1328;209842;-73
2021/11/21 14:18:35;;;;;;;20.60;16.50;;;;;;;7.79;79.10;99631.77;208909;1327;139429;-74
2021/11/21 14:23:37;;;;;;;22.10;18.50;;;;;;;7.78;79.56;99632.55;208312;1328;138334;-73
2021/11/21 14:29:00;;;;;;;23.40;18.90;;;;;;;7.85;79.31;99636.76;209151;1329;138005;-73
2021/11/21 14:34:12;;;;;;;24.40;17.90;;;;;;;7.76;79.42;99642.34;208695;1318;138178;-74
2021/11/21 14:39:18;;;;;;;25.50;20.10;;;;;;;7.76;79.71;99650.59;209373;1329;138318;-74
2021/11/21 14:44:26;;;;;;;23.10;19.20;;;;;;;7.80;79.60;99661.94;209222;1329;138328;-75
2021/11/21 14:49:38;;;;;;;23.80;18.30;;;;;;;7.80;79.56;99665.09;208806;1329;138532;-78
2021/11/21 14:54:47;;;;;;;20.80;15.40;;;;;;;7.74;79.96;99663.16;208150;1325;138435;-75
2021/11/21 14:59:50;;;;;;;22.10;18.40;;;;;;;7.70;80.61;99672.05;207946;1329;138823;-72
2021/11/21 15:05:00;;;;;;;23.90;17.90;;;;;;;7.65;81.05;99676.94;208316;1329;138109;-76
2021/11/21 15:10:05;;;;;;;19.60;14.80;;;;;;;7.52;82.50;99682.31;207928;1328;138605;-73
2021/11/21 15:15:08;;;;;;;22.00;18.20;;;;;;;7.44;83.66;99686.55;208625;1329;138395;-63
2021/11/21 15:20:11;;;;;;;22.60;17.80;;;;;;;7.42;83.90;99684.36;208199;1329;137744;-74
2021/11/21 15:25:12;;;;;;;18.80;14.20;;;;;;;7.42;84.22;99691.99;208131;1329;138662;-76
2021/11/21 15:30:14;;;;;;;22.00;18.20;;;;;;;7.39;84.12;99691.80;208738;1328;138809;-74
2021/11/21 15:35:17;;;;;;;22.40;17.20;;;;;;;7.39;84.07;99691.14;209511;1329;138353;-74
2021/11/21 15:40:25;;;;;;;22.80;18.00;;;;;;;7.45;83.85;99689.68;208310;1329;138940;-72
2021/11/21 15:45:30;;;;;;;25.80;19.60;;;;;;;7.44;84.02;99694.30;208143;1329;138210;-76
2021/11/21 15:50:34;;;;;;;22.40;17.30;;;;;;;7.40;84.38;99700.46;208412;1329;138902;-74
2021/11/21 15:55:36;;;;;;;22.20;17.40;;;;;;;7.35;84.80;99703.98;208087;1329;137853;-75
2021/11/21 16:00:39;;;;;;;25.50;20.00;;;;;;;7.32;85.23;99706.97;208697;1328;141758;-75
2021/11/21 16:05:40;;;;;;;23.80;18.80;;;;;;;7.28;85.75;99709.55;208223;1329;138315;-74
2021/11/21 16:10:45;;;;;;;21.20;15.80;;;;;;;7.31;85.63;99709.55;209006;1328;138529;-74
2021/11/21 16:15:50;;;;;;;24.20;18.60;;;;;;;7.25;85.76;99712.06;209064;1329;139378;-76
2021/11/21 16:20:57;;;;;;;22.10;17.60;;;;;;;7.24;86.20;99711.52;209140;1329;138691;-75
2021/11/21 16:26:04;;;;;;;24.60;18.50;;;;;;;7.28;86.06;99708.80;208134;1331;138779;-77
2021/11/21 16:31:06;;;;;;;24.10;19.30;;;;;;;7.25;86.11;99716.89;209265;1328;141470;-73
2021/11/21 16:36:08;;;;;;;23.10;17.60;;;;;;;7.27;86.16;99721.20;209696;1329;138034;-74
2021/11/21 16:41:10;;;;;;;26.80;20.20;;;;;;;7.29;85.92;99725.73;208608;1329;139266;-77
2021/11/21 16:46:14;;;;;;;22.90;18.50;;;;;;;7.26;85.98;99728.59;208657;1329;138411;-73
2021/11/21 16:51:22;;;;;;;24.90;19.40;;;;;;;7.29;85.88;99734.11;209964;1321;138340;-75
2021/11/21 16:56:31;;;;;;;23.60;19.50;;;;;;;7.28;85.80;99739.10;209014;1332;138998;-78
2021/11/21 17:01:33;;;;;;;20.60;17.40;;;;;;;7.36;85.53;99738.16;207593;1330;138537;-74
2021/11/21 17:06:36;;;;;;;24.60;20.10;;;;;;;7.33;85.27;99744.98;207525;1331;138571;-73
2021/11/21 17:11:38;;;;;;;22.70;18.80;;;;;;;7.37;85.41;99749.84;208190;1335;138646;-74
2021/11/21 17:16:39;;;;;;;27.10;20.00;;;;;;;7.32;85.85;99747.66;209593;1320;138267;-73
2021/11/21 17:21:41;;;;;;;22.30;19.30;;;;;;;7.42;85.40;99752.33;209728;1318;139225;-72
2021/11/21 17:26:45;;;;;;;26.20;20.20;;;;;;;7.33;85.78;99754.23;210948;1319;138423;-73
2021/11/21 17:31:53;;;;;;;24.00;18.20;;;;;;;7.27;86.13;99757.44;208719;1319;138261;-73
2021/11/21 17:36:57;;;;;;;22.90;17.20;;;;;;;7.25;86.26;99757.36;209115;1323;140435;-67
2021/11/21 17:41:58;;;;;;;27.00;21.30;;;;;;;7.18;87.25;99768.64;209614;1319;138345;-72
2021/11/21 17:47:00;;;;;;;29.30;22.10;;;;;;;7.11;88.45;99772.97;209868;1322;138799;-80
2021/11/21 17:52:03;;;;;;;24.20;20.60;;;;;;;7.09;88.78;99775.48;209998;1320;139407;-76
2021/11/21 17:57:04;;;;;;;25.90;20.60;;;;;;;7.00;89.49;99777.86;209575;1318;139142;-77
2021/11/21 18:02:07;;;;;;;24.70;21.30;;;;;;;7.06;89.60;99787.15;209476;1319;139416;-78
2021/11/21 18:07:08;;;;;;;25.10;20.80;;;;;;;6.99;90.29;99795.98;209818;1322;138628;-78
2021/11/21 18:12:10;;;;;;;21.90;18.80;;;;;;;6.95;90.38;99803.80;209715;1323;137899;-79
2021/11/21 18:17:15;;;;;;;23.50;19.40;;;;;;;6.86;91.36;99812.09;210254;1323;138973;-77
2021/11/21 18:22:18;;;;;;;25.60;21.40;;;;;;;6.79;91.99;99809.33;209634;1326;139122;-78
2021/11/21 18:27:20;;;;;;;24.90;19.30;;;;;;;6.90;91.73;99805.28;209612;1324;139047;-79
2021/11/21 18:32:23;;;;;;;25.50;22.00;;;;;;;6.92;91.21;99810.69;210254;1324;139196;-75
2021/11/21 18:37:25;;;;;;;26.40;20.20;;;;;;;6.90;91.74;99814.76;209911;1325;138268;-77
2021/11/21 18:42:27;;;;;;;23.70;19.50;;;;;;;6.81;91.66;99815.73;210149;1319;138701;-75
2021/11/21 18:47:29;;;;;;;23.70;19.70;;;;;;;6.85;91.54;99816.09;210546;1324;137657;-77
2021/11/21 18:52:31;;;;;;;22.90;17.80;;;;;;;6.83;91.54;99822.06;205451;1322;5144701;-75
2021/11/21 18:57:36;;;;;;;24.50;19.90;;;;;;;6.83;91.44;99830.79;209388;1325;139035;-76
2021/11/21 19:02:53;;;;;;;25.90;20.90;;;;;;;6.86;91.11;99841.08;209778;1320;138133;-76
2021/11/21 19:07:58;;;;;;;22.30;18.10;;;;;;;6.88;91.06;99846.29;209519;1320;138763;-77
2021/11/21 19:13:00;;;;;;;20.80;16.30;;;;;;;6.90;90.81;99853.65;210361;1320;139104;-74
2021/11/21 19:18:02;;;;;;;20.60;15.40;;;;;;;6.80;91.21;99860.16;209837;1320;139057;-76
2021/11/21 19:23:05;;;;;;;22.70;17.60;;;;;;;6.80;91.17;99871.02;209375;1322;138608;-74
2021/11/21 19:28:08;;;;;;;27.80;23.80;;;;;;;6.77;90.89;99880.76;210612;1323;138308;-77
2021/11/21 19:33:14;;;;;;;22.20;18.00;;;;;;;6.75;91.22;99887.05;209718;1322;138938;-78
2021/11/21 19:38:21;;;;;;;17.40;14.80;;;;;;;6.77;90.97;99895.80;210081;1327;138713;-76
2021/11/21 19:43:27;;;;;;;22.60;16.70;;;;;;;6.74;90.76;99903.63;209949;1325;139049;-77
2021/11/21 19:48:29;;;;;;;20.20;15.70;;;;;;;6.75;90.44;99911.27;210559;1320;138700;-76
2021/11/21 19:53:31;;;;;;;19.10;16.90;;;;;;;6.83;89.78;99910.83;210068;1320;138059;-74
2021/11/21 19:58:35;;;;;;;16.60;14.30;;;;;;;6.71;90.40;99919.48;210237;1323;138755;-75
2021/11/21 20:03:37;;;;;;;18.80;15.70;;;;;;;6.76;90.42;99924.13;211116;1323;138363;-75
2021/11/21 20:08:42;;;;;;;15.90;13.00;;;;;;;6.94;90.06;99932.61;210676;1321;139501;-75
2021/11/21 20:13:51;;;;;;;14.80;12.00;;;;;;;6.95;89.10;99942.48;210575;1320;138318;-75
2021/11/21 20:18:57;;;;;;;15.90;12.40;;;;;;;6.88;89.39;99944.02;210336;1322;137745;-75
2021/11/21 20:24:02;;;;;;;14.70;12.20;;;;;;;6.77;89.68;99950.45;209821;1324;138811;-75
2021/11/21 20:29:05;;;;;;;14.50;12.30;;;;;;;6.72;90.19;99958.61;210733;1322;138891;-62
2021/11/21 20:39:30;;;;;;;15.20;13.00;;;;;;;6.79;89.84;99963.56;209904;1321;138246;-75
2021/11/21 20:44:31;;;;;;;18.50;15.70;;;;;;;6.75;90.00;99972.46;210431;1322;138298;-74
2021/11/21 20:49:33;;;;;;;15.30;13.00;;;;;;;6.73;90.53;99981.12;210256;1325;138956;-74
2021/11/21 20:54:35;;;;;;;16.50;12.60;;;;;;;6.74;90.66;99989.25;211372;1326;138859;-76
2021/11/21 20:59:42;;;;;;;15.10;13.50;;;;;;;6.75;90.11;99989.47;210817;1316;138270;-75
2021/11/21 21:04:45;;;;;;;21.20;15.70;;;;;;;6.76;90.16;99990.73;209720;1320;138150;-76
2021/11/21 21:09:47;;;;;;;19.30;14.10;;;;;;;6.70;90.61;99996.29;209265;1322;138459;-76
2021/11/21 21:14:49;;;;;;;18.50;13.40;;;;;;;6.72;90.78;99995.84;209440;1320;138930;-74
2021/11/21 21:19:51;;;;;;;18.10;14.90;;;;;;;6.72;90.39;99999.02;209782;1322;138903;-75
2021/11/21 21:24:52;;;;;;;20.40;15.50;;;;;;;6.70;90.13;100008.31;209838;1322;138761;-75
2021/11/21 21:29:54;;;;;;;18.10;13.80;;;;;;;6.63;90.57;100020.48;209631;1320;139160;-72
2021/11/21 21:34:56;;;;;;;16.20;13.20;;;;;;;6.58;90.36;100011.30;209508;1323;139150;-75
2021/11/21 21:39:58;;;;;;;16.90;14.20;;;;;;;6.57;90.63;100012.95;209271;1322;139024;-74
2021/11/21 21:45:00;;;;;;;19.60;14.20;;;;;;;6.54;90.43;100014.45;209433;1322;138751;-76
2021/11/21 21:50:02;;;;;;;19.60;14.70;;;;;;;6.50;90.30;100020.80;210122;1322;138405;-74
2021/11/21 21:55:10;;;;;;;18.00;14.30;;;;;;;6.52;90.52;100022.82;209148;1325;138987;-73
2021/11/21 22:00:14;;;;;;;23.30;17.50;;;;;;;6.45;90.72;100030.65;209844;1322;138968;-74
2021/11/21 22:05:17;;;;;;;21.60;14.80;;;;;;;6.44;90.72;100033.21;209705;1321;138212;-76
2021/11/21 22:10:20;;;;;;;18.30;14.20;;;;;;;6.36;91.05;100044.39;209715;1325;138828;-75
2021/11/21 22:15:22;;;;;;;23.80;16.70;;;;;;;6.34;91.01;100051.08;209807;1320;1634699;-74
2021/11/21 22:20:25;;;;;;;20.90;15.70;;;;;;;6.29;91.30;100054.67;210663;1322;139286;-75
2021/11/21 22:25:27;;;;;;;22.50;16.70;;;;;;;6.26;91.51;100055.27;210529;1322;139012;-79
2021/11/21 22:30:32;;;;;;;20.70;16.80;;;;;;;6.19;91.78;100058.13;210130;1322;139965;-77
2021/11/21 22:35:39;;;;;;;20.50;16.60;;;;;;;6.26;91.71;100064.17;210134;1322;139025;-73
2021/11/21 22:40:44;;;;;;;20.80;17.10;;;;;;;6.35;91.55;100068.09;210464;1322;138763;-77
2021/11/21 22:45:48;;;;;;;20.60;16.90;;;;;;;6.33;90.99;100070.58;210866;1322;139037;-74
2021/11/21 22:50:50;;;;;;;25.00;18.60;;;;;;;6.27;91.32;100071.98;210427;1320;138709;-75
2021/11/21 22:55:52;;;;;;;23.50;17.70;;;;;;;6.30;91.26;100079.02;212139;1322;138426;-74
2021/11/21 23:00:53;;;;;;;21.60;17.80;;;;;;;6.29;91.47;100076.01;210081;1322;139085;-74
2021/11/21 23:05:55;;;;;;;23.30;18.20;;;;;;;6.35;91.08;100080.73;211030;1322;138878;-76
2021/11/21 23:10:58;;;;;;;23.40;19.10;;;;;;;6.38;90.97;100086.20;209957;1322;139127;-74
2021/11/21 23:16:01;;;;;;;23.60;18.30;;;;;;;6.31;90.63;100082.64;210660;1322;139083;-74
2021/11/21 23:21:06;;;;;;;23.40;18.70;;;;;;;6.27;90.98;100084.91;209787;1322;139142;-75
2021/11/21 23:26:08;;;;;;;22.50;17.10;;;;;;;6.24;91.13;100085.70;210436;1322;139396;-76
2021/11/21 23:31:10;;;;;;;22.10;16.80;;;;;;;6.35;90.93;100091.23;209366;1322;138748;-74
2021/11/21 23:36:13;;;;;;;22.70;17.50;;;;;;;6.26;90.06;100085.16;210300;1322;138649;-74
2021/11/21 23:41:15;;;;;;;24.90;17.40;;;;;;;6.16;90.69;100092.37;209931;1321;138705;-74
2021/11/21 23:46:17;;;;;;;22.00;17.10;;;;;;;6.12;91.05;100097.52;210461;1321;139282;-71
2021/11/21 23:51:19;;;;;;;20.90;16.30;;;;;;;6.17;91.11;100105.88;210623;1320;139399;-74
2021/11/21 23:56:20;;;;;;;24.10;17.20;;;;;;;6.20;90.73;100108.24;210046;1322;140786;-73
